createdAt,value
2018-06-19T00:00:54.267Z,100884.80
2018-06-19T00:03:22.919Z,100893.09
2018-06-19T00:05:51.354Z,100892.88
2018-06-19T00:08:19.736Z,100887.88
2018-06-19T00:10:48.243Z,100887.59
2018-06-19T00:13:16.645Z,100894.45
2018-06-19T00:15:45.171Z,100889.27
2018-06-19T00:18:17.995Z,100887.45
2018-06-19T00:20:46.779Z,100890.02
2018-06-19T00:23:15.294Z,100895.88
2018-06-19T00:25:43.799Z,100896.59
2018-06-19T00:28:12.322Z,100893.59
2018-06-19T00:30:40.791Z,100894.05
2018-06-19T00:33:09.447Z,100895.22
2018-06-19T00:35:37.891Z,100901.02
2018-06-19T00:38:06.375Z,100899.67
2018-06-19T00:40:34.879Z,100903.52
2018-06-19T00:43:03.447Z,100900.44
2018-06-19T00:45:32.047Z,100908.64
2018-06-19T00:48:00.539Z,100900.19
2018-06-19T00:50:28.931Z,100901.38
2018-06-19T00:52:57.331Z,100899.42
2018-06-19T00:55:25.731Z,100894.89
2018-06-19T00:57:54.230Z,100898.41
2018-06-19T01:00:22.904Z,100903.62
2018-06-19T01:02:51.615Z,100907.38
2018-06-19T01:05:20.123Z,100907.59
2018-06-19T01:07:48.761Z,100898.11
2018-06-19T01:10:17.207Z,100899.04
2018-06-19T01:12:45.683Z,100896.36
2018-06-19T01:15:14.575Z,100906.55
2018-06-19T01:17:42.971Z,100907.22
2018-06-19T01:20:12.515Z,100905.55
2018-06-19T01:22:41.051Z,100901.66
2018-06-19T01:25:09.491Z,100905.02
2018-06-19T01:27:38.175Z,100901.52
2018-06-19T01:30:06.693Z,100897.86
2018-06-19T01:32:35.107Z,100904.84
2018-06-19T01:35:03.559Z,100899.38
2018-06-19T01:37:32.063Z,100896.30
2018-06-19T01:40:00.740Z,100897.81
2018-06-19T01:42:29.211Z,100904.34
2018-06-19T01:44:57.636Z,100903.58
2018-06-19T01:47:26.060Z,100911.79
2018-06-19T01:49:54.535Z,100905.31
2018-06-19T01:52:23.416Z,100895.06
2018-06-19T01:54:51.815Z,100900.42
2018-06-19T01:57:20.248Z,100900.52
2018-06-19T01:59:48.746Z,100900.42
2018-06-19T02:02:17.292Z,100907.44
2018-06-19T02:04:46.107Z,100903.77
2018-06-19T02:07:14.699Z,100908.80
2018-06-19T02:09:43.083Z,100908.61
2018-06-19T02:12:11.547Z,100907.87
2018-06-19T02:14:39.931Z,100900.84
2018-06-19T02:17:08.562Z,100906.75
2018-06-19T02:19:37.067Z,100904.30
2018-06-19T02:22:05.566Z,100906.77
2018-06-19T02:24:34.089Z,100911.00
2018-06-19T02:27:02.580Z,100914.67
2018-06-19T02:29:31.071Z,100924.45
2018-06-19T02:31:59.556Z,100920.97
2018-06-19T02:34:28.028Z,100917.63
2018-06-19T02:36:56.443Z,100913.52
2018-06-19T02:39:24.908Z,100919.34
2018-06-19T02:41:53.491Z,100920.72
2018-06-19T02:44:21.910Z,100917.53
2018-06-19T02:46:50.403Z,100910.95
2018-06-19T02:49:18.823Z,100910.08
2018-06-19T02:51:47.319Z,100916.33
2018-06-19T02:54:15.969Z,100917.63
2018-06-19T02:56:44.499Z,100921.81
2018-06-19T02:59:12.912Z,100918.92
2018-06-19T03:01:41.400Z,100916.77
2018-06-19T03:04:09.832Z,100925.16
2018-06-19T03:06:38.428Z,100927.14
2018-06-19T03:09:09.347Z,100935.17
2018-06-19T03:11:37.800Z,100938.31
2018-06-19T03:14:06.507Z,100934.70
2018-06-19T03:16:34.939Z,100937.30
2018-06-19T03:19:03.782Z,100929.15
2018-06-19T03:21:32.408Z,100933.45
2018-06-19T03:24:01.174Z,100935.97
2018-06-19T03:26:29.579Z,100942.53
2018-06-19T03:28:57.976Z,100940.09
2018-06-19T03:31:26.534Z,100948.93
2018-06-19T03:33:55.152Z,100957.64
2018-06-19T03:36:23.839Z,100955.59
2018-06-19T03:38:52.255Z,100951.12
2018-06-19T03:41:20.751Z,100948.56
2018-06-19T03:43:49.171Z,100947.09
2018-06-19T03:46:17.652Z,100950.71
2018-06-19T03:48:46.143Z,100952.39
2018-06-19T03:51:14.608Z,100956.80
2018-06-19T03:53:43.016Z,100960.14
2018-06-19T03:56:11.523Z,100954.91
2018-06-19T03:58:40.015Z,100951.72
2018-06-19T04:01:08.676Z,100952.41
2018-06-19T04:03:37.185Z,100955.20
2018-06-19T04:06:05.683Z,100955.14
2018-06-19T04:08:34.215Z,100964.11
2018-06-19T04:11:02.732Z,100964.86
2018-06-19T04:13:31.341Z,100967.55
2018-06-19T04:15:59.811Z,100968.55
2018-06-19T04:18:28.263Z,100964.90
2018-06-19T04:20:56.758Z,100959.54
2018-06-19T04:23:25.187Z,100955.05
2018-06-19T04:25:53.627Z,100963.00
2018-06-19T04:28:22.156Z,100960.77
2018-06-19T04:30:50.619Z,100952.59
2018-06-19T04:33:19.136Z,100957.19
2018-06-19T04:35:47.539Z,100957.16
2018-06-19T04:38:16.383Z,100945.22
2018-06-19T04:40:44.771Z,100947.91
2018-06-19T04:43:13.174Z,100952.45
2018-06-19T04:45:41.710Z,100957.34
2018-06-19T04:48:10.174Z,100959.75
2018-06-19T04:50:38.851Z,100965.39
2018-06-19T04:53:07.251Z,100968.40
2018-06-19T04:55:35.657Z,100962.30
2018-06-19T04:58:04.181Z,100967.38
2018-06-19T05:00:32.651Z,100959.58
2018-06-19T05:03:01.239Z,100970.35
2018-06-19T05:05:29.737Z,100982.22
2018-06-19T05:07:58.129Z,100983.47
2018-06-19T05:10:26.602Z,100980.35
2018-06-19T05:12:55.075Z,100986.04
2018-06-19T05:15:23.718Z,100985.77
2018-06-19T05:17:52.220Z,100989.52
2018-06-19T05:20:20.736Z,100992.42
2018-06-19T05:22:49.159Z,100993.47
2018-06-19T05:25:17.584Z,101002.80
2018-06-19T05:27:46.255Z,100994.56
2018-06-19T05:30:14.683Z,100998.90
2018-06-19T05:32:43.059Z,100999.41
2018-06-19T05:35:11.511Z,100993.48
2018-06-19T05:37:39.970Z,101005.47
2018-06-19T05:40:08.635Z,101015.84
2018-06-19T05:42:37.035Z,101003.17
2018-06-19T05:45:05.431Z,101009.75
2018-06-19T05:47:33.951Z,101009.29
2018-06-19T05:50:02.367Z,101008.68
2018-06-19T05:52:30.845Z,101001.83
2018-06-19T05:54:59.243Z,101005.39
2018-06-19T05:57:27.687Z,101008.89
2018-06-19T05:59:56.126Z,101010.32
2018-06-19T06:02:24.605Z,101005.36
2018-06-19T06:04:53.251Z,101009.63
2018-06-19T06:07:21.671Z,101015.23
2018-06-19T06:09:50.415Z,101017.63
2018-06-19T06:12:18.893Z,101016.81
2018-06-19T06:14:47.400Z,101019.61
2018-06-19T06:17:16.089Z,101017.95
2018-06-19T06:19:44.535Z,101022.12
2018-06-19T06:22:12.944Z,101020.76
2018-06-19T06:24:41.364Z,101022.29
2018-06-19T06:27:09.923Z,101019.38
2018-06-19T06:29:38.813Z,101022.20
2018-06-19T06:32:07.197Z,101017.56
2018-06-19T06:34:35.711Z,101020.94
2018-06-19T06:37:04.207Z,101020.31
2018-06-19T06:39:32.676Z,101025.12
2018-06-19T06:42:01.388Z,101025.27
2018-06-19T06:44:29.802Z,101026.06
2018-06-19T06:46:58.290Z,101029.03
2018-06-19T06:49:26.811Z,101021.42
2018-06-19T06:51:55.275Z,101022.00
2018-06-19T06:54:23.974Z,101019.16
2018-06-19T06:56:56.519Z,101019.53
2018-06-19T06:59:25.135Z,101026.28
2018-06-19T07:01:53.543Z,101027.95
2018-06-19T07:04:21.936Z,101034.63
2018-06-19T07:06:50.827Z,101024.72
2018-06-19T07:09:19.247Z,101022.88
2018-06-19T07:11:47.755Z,101029.09
2018-06-19T07:14:16.226Z,101026.91
2018-06-19T07:16:44.752Z,101030.23
2018-06-19T07:19:13.300Z,101032.78
2018-06-19T07:21:41.828Z,101033.70
2018-06-19T07:24:10.339Z,101029.72
2018-06-19T07:26:38.860Z,101025.12
2018-06-19T07:29:07.247Z,101023.98
2018-06-19T07:31:35.665Z,101021.69
2018-06-19T07:34:04.218Z,101023.98
2018-06-19T07:36:32.731Z,101026.19
2018-06-19T07:39:01.195Z,101026.05
2018-06-19T07:41:29.612Z,101027.23
2018-06-19T07:43:58.099Z,101029.76
2018-06-19T07:46:26.557Z,101024.48
2018-06-19T07:48:55.235Z,101020.79
2018-06-19T07:51:23.732Z,101031.67
2018-06-19T07:53:52.215Z,101030.37
2018-06-19T07:56:20.623Z,101036.46
2018-06-19T07:58:49.155Z,101035.27
2018-06-19T08:01:17.603Z,101040.48
2018-06-19T08:03:45.988Z,101039.43
2018-06-19T08:06:14.382Z,101045.90
2018-06-19T08:08:42.823Z,101040.45
2018-06-19T08:11:11.286Z,101034.36
2018-06-19T08:13:40.167Z,101041.08
2018-06-19T08:16:08.687Z,101042.61
2018-06-19T08:18:37.509Z,101045.36
2018-06-19T08:21:06.151Z,101043.41
2018-06-19T08:23:34.576Z,101046.97
2018-06-19T08:26:03.279Z,101050.95
2018-06-19T08:28:31.690Z,101049.58
2018-06-19T08:31:00.154Z,101039.16
2018-06-19T08:33:28.615Z,101040.90
2018-06-19T08:35:57.035Z,101035.02
2018-06-19T08:38:25.583Z,101036.31
2018-06-19T08:40:54.075Z,101035.86
2018-06-19T08:43:22.560Z,101030.17
2018-06-19T08:45:51.369Z,101037.55
2018-06-19T08:48:19.873Z,101036.39
2018-06-19T08:50:48.272Z,101035.69
2018-06-19T08:53:16.980Z,101036.63
2018-06-19T08:55:45.420Z,101040.37
2018-06-19T08:58:13.818Z,101043.09
2018-06-19T09:00:42.327Z,101035.69
2018-06-19T09:03:11.198Z,101041.72
2018-06-19T09:05:39.725Z,101040.65
2018-06-19T09:08:08.275Z,101030.76
2018-06-19T09:10:36.791Z,101038.02
2018-06-19T09:13:05.271Z,101040.04
2018-06-19T09:15:33.795Z,101034.49
2018-06-19T09:18:02.263Z,101038.56
2018-06-19T09:20:31.011Z,101039.66
2018-06-19T09:22:59.487Z,101042.64
2018-06-19T09:25:27.924Z,101037.39
2018-06-19T09:27:56.567Z,101037.16
2018-06-19T09:30:25.036Z,101032.59
2018-06-19T09:32:53.547Z,101036.28
2018-06-19T09:35:22.011Z,101037.09
2018-06-19T09:37:50.536Z,101035.47
2018-06-19T09:40:18.960Z,101036.09
2018-06-19T09:42:47.503Z,101040.98
2018-06-19T09:45:15.979Z,101035.09
2018-06-19T09:47:44.499Z,101035.11
2018-06-19T09:50:13.007Z,101031.73
2018-06-19T09:52:41.511Z,101035.77
2018-06-19T09:55:10.117Z,101026.81
2018-06-19T09:57:38.611Z,101033.84
2018-06-19T10:00:07.296Z,101035.55
2018-06-19T10:02:35.756Z,101038.28
2018-06-19T10:05:04.267Z,101031.91
2018-06-19T10:07:32.635Z,101032.72
2018-06-19T10:10:01.071Z,101031.53
2018-06-19T10:12:29.495Z,101028.20
2018-06-19T10:14:58.069Z,101042.27
2018-06-19T10:17:26.579Z,101040.49
2018-06-19T10:19:55.288Z,101037.83
2018-06-19T10:22:23.703Z,101049.47
2018-06-19T10:24:52.114Z,101044.83
2018-06-19T10:27:20.543Z,101046.25
2018-06-19T10:29:48.978Z,101045.50
2018-06-19T10:32:17.483Z,101044.88
2018-06-19T10:34:45.963Z,101047.61
2018-06-19T10:37:14.395Z,101037.95
2018-06-19T10:39:42.883Z,101035.89
2018-06-19T10:42:11.379Z,101037.86
2018-06-19T10:44:39.774Z,101041.77
2018-06-19T10:47:08.297Z,101047.12
2018-06-19T10:49:36.714Z,101043.94
2018-06-19T10:52:05.111Z,101046.13
2018-06-19T10:54:33.776Z,101049.21
2018-06-19T10:57:02.175Z,101045.24
2018-06-19T10:59:30.748Z,101051.36
2018-06-19T11:01:59.159Z,101047.52
2018-06-19T11:04:27.600Z,101050.61
2018-06-19T11:06:56.391Z,101059.03
2018-06-19T11:09:24.941Z,101055.88
2018-06-19T11:11:53.383Z,101054.41
2018-06-19T11:14:21.939Z,101052.22
2018-06-19T11:16:50.395Z,101049.02
2018-06-19T11:19:18.791Z,101054.37
2018-06-19T11:21:47.231Z,101053.63
2018-06-19T11:24:15.644Z,101054.08
2018-06-19T11:26:44.151Z,101051.61
2018-06-19T11:29:12.531Z,101049.72
2018-06-19T11:31:41.028Z,101048.81
2018-06-19T11:34:09.532Z,101052.91
2018-06-19T11:36:38.056Z,101048.44
2018-06-19T11:39:10.669Z,101053.03
2018-06-19T11:41:39.383Z,101043.03
2018-06-19T11:44:07.960Z,101046.97
2018-06-19T11:46:36.487Z,101048.27
2018-06-19T11:49:04.975Z,101048.92
2018-06-19T11:51:33.408Z,101042.48
2018-06-19T11:54:02.323Z,101043.73
2018-06-19T11:56:30.771Z,101037.45
2018-06-19T11:58:59.373Z,101044.47
2018-06-19T12:01:27.780Z,101038.28
2018-06-19T12:03:56.370Z,101033.52
2018-06-19T12:06:24.851Z,101030.42
2018-06-19T12:08:53.387Z,101033.63
2018-06-19T12:11:21.811Z,101028.16
2018-06-19T12:13:50.249Z,101035.25
2018-06-19T12:16:18.655Z,101029.34
2018-06-19T12:18:47.047Z,101023.49
2018-06-19T12:21:15.543Z,101024.15
2018-06-19T12:23:44.012Z,101026.79
2018-06-19T12:26:12.468Z,101020.72
2018-06-19T12:28:41.144Z,101024.91
2018-06-19T12:31:09.560Z,101018.13
2018-06-19T12:33:37.963Z,101015.42
2018-06-19T12:36:07.523Z,101018.98
2018-06-19T12:38:36.013Z,101016.66
2018-06-19T12:41:04.496Z,101015.78
2018-06-19T12:43:33.011Z,101013.16
2018-06-19T12:46:01.647Z,101016.42
2018-06-19T12:48:30.091Z,101021.09
2018-06-19T12:52:07.708Z,101019.66
2018-06-19T12:55:01.138Z,101018.48
2018-06-19T12:57:29.571Z,101021.88
2018-06-19T12:59:58.061Z,101019.23
2018-06-19T13:02:26.549Z,101024.17
2018-06-19T13:05:06.199Z,101020.34
2018-06-19T13:07:34.726Z,101017.72
2018-06-19T13:10:03.203Z,101017.78
2018-06-19T13:12:42.747Z,101015.73
2018-06-19T13:15:11.160Z,101023.70
2018-06-19T13:17:50.844Z,101013.30
2018-06-19T13:20:30.415Z,101016.91
2018-06-19T13:22:58.867Z,101005.96
2018-06-19T13:25:27.707Z,101004.08
2018-06-19T13:27:56.156Z,101010.02
2018-06-19T13:30:35.782Z,101006.11
2018-06-19T13:33:04.172Z,101004.69
2018-06-19T13:35:32.583Z,100999.37
2018-06-19T13:38:00.972Z,100995.14
2018-06-19T13:41:09.473Z,100998.39
2018-06-19T13:43:49.216Z,101001.83
2018-06-19T13:46:17.689Z,101004.32
2018-06-19T13:48:46.142Z,100994.80
2018-06-19T13:51:14.620Z,100999.84
2018-06-19T13:53:43.885Z,100993.45
2018-06-19T13:57:32.863Z,100987.42
2018-06-19T14:00:02.704Z,100990.58
2018-06-19T14:02:31.183Z,100996.78
2018-06-19T14:05:00.010Z,100995.59
2018-06-19T14:07:29.460Z,100993.20
2018-06-19T14:10:09.187Z,100993.70
2018-06-19T14:13:03.410Z,100994.86
2018-06-19T14:15:37.287Z,100989.37
2018-06-19T14:18:06.269Z,100989.51
2018-06-19T14:20:34.964Z,100990.56
2018-06-19T14:23:03.464Z,100986.48
2018-06-19T14:25:31.953Z,100985.87
2018-06-19T14:28:00.371Z,100982.46
2018-06-19T14:30:28.809Z,100980.55
2018-06-19T14:32:57.296Z,100984.14
2018-06-19T14:35:25.831Z,100985.97
2018-06-19T14:37:54.258Z,100982.23
2018-06-19T14:40:22.787Z,100984.19
2018-06-19T14:42:51.331Z,100980.83
2018-06-19T14:45:19.833Z,100981.23
2018-06-19T14:47:48.283Z,100982.34
2018-06-19T14:50:16.772Z,100981.44
2018-06-19T14:52:45.204Z,100977.75
2018-06-19T14:55:13.647Z,100982.52
2018-06-19T14:57:42.113Z,100982.80
2018-06-19T15:00:11.207Z,100986.02
2018-06-19T15:02:40.127Z,100989.73
2018-06-19T15:05:09.037Z,100987.72
2018-06-19T15:07:38.524Z,100983.28
2018-06-19T15:10:08.250Z,100986.22
2018-06-19T15:12:36.708Z,100994.83
2018-06-19T15:15:05.139Z,100988.77
2018-06-19T15:17:33.627Z,100988.44
2018-06-19T15:20:02.083Z,100981.48
2018-06-19T15:22:30.507Z,100984.95
2018-06-19T15:24:59.003Z,100978.91
2018-06-19T15:27:27.483Z,100985.42
2018-06-19T15:29:55.975Z,100982.53
2018-06-19T15:32:24.439Z,100979.42
2018-06-19T15:34:52.882Z,100977.05
2018-06-19T15:37:21.483Z,100976.55
2018-06-19T15:39:49.946Z,100973.81
2018-06-19T15:42:18.327Z,100975.95
2018-06-19T15:44:46.736Z,100976.84
2018-06-19T15:47:15.195Z,100977.36
2018-06-19T15:49:43.744Z,100971.28
2018-06-19T15:52:12.221Z,100971.36
2018-06-19T15:54:40.631Z,100978.64
2018-06-19T15:57:09.138Z,100975.52
2018-06-19T15:59:37.510Z,100977.84
2018-06-19T16:02:05.976Z,100979.07
2018-06-19T16:04:34.391Z,100975.01
2018-06-19T16:07:02.883Z,100973.02
2018-06-19T16:09:31.343Z,100973.38
2018-06-19T16:11:59.877Z,100971.91
2018-06-19T16:14:28.323Z,100974.25
2018-06-19T16:16:56.760Z,100968.69
2018-06-19T16:19:25.227Z,100966.35
2018-06-19T16:21:53.739Z,100968.62
2018-06-19T16:24:22.140Z,100971.17
2018-06-19T16:26:50.555Z,100965.63
2018-06-19T16:29:19.154Z,100964.33
2018-06-19T16:31:47.596Z,100963.94
2018-06-19T16:34:16.099Z,100970.70
2018-06-19T16:36:44.622Z,100963.89
2018-06-19T16:39:13.499Z,100971.95
2018-06-19T16:41:41.959Z,100963.91
2018-06-19T16:44:10.508Z,100968.43
2018-06-19T16:46:39.049Z,100968.40
2018-06-19T16:49:07.839Z,100967.73
2018-06-19T16:51:36.247Z,100961.74
2018-06-19T16:54:04.763Z,100961.14
2018-06-19T16:56:33.185Z,100956.36
2018-06-19T16:59:01.612Z,100962.87
2018-06-19T17:01:30.071Z,100963.30
2018-06-19T17:03:58.466Z,100958.09
2018-06-19T17:06:27.191Z,100956.16
2018-06-19T17:08:55.787Z,100956.03
2018-06-19T17:11:24.248Z,100959.19
2018-06-19T17:13:52.723Z,100955.09
2018-06-19T17:16:21.830Z,100950.62
2018-06-19T17:18:50.243Z,100949.70
2018-06-19T17:21:18.671Z,100942.73
2018-06-19T17:23:47.360Z,100948.61
2018-06-19T17:26:15.896Z,100947.34
2018-06-19T17:28:44.383Z,100941.92
2018-06-19T17:31:12.880Z,100938.07
2018-06-19T17:33:41.297Z,100937.41
2018-06-19T17:36:10.150Z,100943.96
2018-06-19T17:38:38.713Z,100941.20
2018-06-19T17:41:07.367Z,100937.41
2018-06-19T17:43:35.868Z,100940.72
2018-06-19T17:46:04.331Z,100933.58
2018-06-19T17:48:32.814Z,100937.94
2018-06-19T17:51:01.370Z,100932.70
2018-06-19T17:53:29.908Z,100931.85
2018-06-19T17:55:58.463Z,100937.30
2018-06-19T17:58:26.921Z,100928.77
2018-06-19T18:00:55.791Z,100931.02
2018-06-19T18:03:24.236Z,100929.52
2018-06-19T18:05:52.720Z,100930.61
2018-06-19T18:08:21.199Z,100928.23
2018-06-19T18:10:49.748Z,100936.41
2018-06-19T18:13:18.241Z,100935.33
2018-06-19T18:15:46.738Z,100938.86
2018-06-19T18:18:16.298Z,100941.76
2018-06-19T18:20:44.856Z,100936.04
2018-06-19T18:23:14.243Z,100937.91
2018-06-19T18:25:43.013Z,100938.15
2018-06-19T18:28:11.960Z,100931.34
2018-06-19T18:30:40.559Z,100935.17
2018-06-19T18:33:09.160Z,100935.55
2018-06-19T18:35:38.648Z,100932.58
2018-06-19T18:38:07.819Z,100933.95
2018-06-19T18:40:36.350Z,100932.70
2018-06-19T18:43:05.345Z,100930.61
2018-06-19T18:45:34.946Z,100929.88
2018-06-19T18:48:03.992Z,100927.27
2018-06-19T18:50:32.763Z,100926.65
2018-06-19T18:53:01.300Z,100927.08
2018-06-19T18:55:30.326Z,100921.14
2018-06-19T18:57:58.889Z,100925.41
2018-06-19T19:00:27.399Z,100929.02
2018-06-19T19:02:55.937Z,100923.38
2018-06-19T19:05:24.510Z,100923.81
2018-06-19T19:07:54.052Z,100922.23
2018-06-19T19:10:27.644Z,100927.67
2018-06-19T19:12:56.916Z,100923.15
2018-06-19T19:15:30.993Z,100932.17
2018-06-19T19:18:04.862Z,100931.41
2018-06-19T19:20:34.365Z,100927.23
2018-06-19T19:23:02.903Z,100928.31
2018-06-19T19:25:31.471Z,100935.74
2018-06-19T19:28:05.324Z,100935.11
2018-06-19T19:30:33.774Z,100932.06
2018-06-19T19:33:02.788Z,100938.81
2018-06-19T19:35:32.015Z,100936.73
2018-06-19T19:39:09.092Z,100938.61
2018-06-19T19:41:37.631Z,100941.04
2018-06-19T19:44:07.089Z,100940.95
2018-06-19T19:46:40.876Z,100947.19
2018-06-19T19:49:09.617Z,100950.05
2018-06-19T19:51:38.076Z,100953.28
2018-06-19T19:54:06.854Z,100953.92
2018-06-19T19:56:40.634Z,100956.91
2018-06-19T19:59:09.060Z,100954.14
2018-06-19T20:01:37.543Z,100953.27
2018-06-19T20:04:06.070Z,100959.11
2018-06-19T20:06:34.916Z,100951.67
2018-06-19T20:09:03.765Z,100954.59
2018-06-19T20:11:32.225Z,100962.01
2018-06-19T20:14:00.772Z,100959.99
2018-06-19T20:16:29.307Z,100963.86
2018-06-19T20:18:57.970Z,100963.86
2018-06-19T20:21:26.473Z,100963.78
2018-06-19T20:23:55.127Z,100959.95
2018-06-19T20:26:23.587Z,100966.90
2018-06-19T20:28:52.065Z,100966.22
2018-06-19T20:31:20.611Z,100966.88
2018-06-19T20:33:49.117Z,100966.80
2018-06-19T20:36:17.679Z,100968.13
2018-06-19T20:38:46.202Z,100966.16
2018-06-19T20:41:14.617Z,100964.22
2018-06-19T20:43:43.310Z,100961.20
2018-06-19T20:46:11.819Z,100958.01
2018-06-19T20:48:40.255Z,100962.45
2018-06-19T20:51:08.959Z,100964.38
2018-06-19T20:53:37.455Z,100964.61
2018-06-19T20:56:05.950Z,100961.48
2018-06-19T20:58:34.395Z,100967.85
2018-06-19T21:01:02.892Z,100967.61
2018-06-19T21:03:31.427Z,100969.54
2018-06-19T21:05:59.876Z,100964.12
2018-06-19T21:08:33.771Z,100966.27
2018-06-19T21:11:02.201Z,100970.06
2018-06-19T21:13:30.616Z,100971.52
2018-06-19T21:15:59.066Z,100970.17
2018-06-19T21:18:27.455Z,100967.16
2018-06-19T21:20:56.075Z,100969.77
2018-06-19T21:23:24.514Z,100966.19
2018-06-19T21:25:52.939Z,100972.27
2018-06-19T21:28:21.336Z,100979.23
2018-06-19T21:30:50.087Z,100983.42
2018-06-19T21:33:18.711Z,100985.75
2018-06-19T21:35:47.132Z,100983.34
2018-06-19T21:38:15.691Z,100989.40
2018-06-19T21:40:44.131Z,100983.42
2018-06-19T21:43:12.580Z,100982.31
2018-06-19T21:45:41.179Z,100982.02
2018-06-19T21:48:09.579Z,100983.48
2018-06-19T21:50:37.991Z,100987.00
2018-06-19T21:53:06.651Z,100990.52
2018-06-19T21:55:35.108Z,100994.81
2018-06-19T21:58:03.600Z,100996.45
2018-06-19T22:00:32.072Z,100999.34
2018-06-19T22:03:00.549Z,101005.63
2018-06-19T22:05:29.068Z,101002.80
2018-06-19T22:07:57.527Z,100997.53
2018-06-19T22:10:26.059Z,100998.48
2018-06-19T22:12:54.480Z,100997.59
2018-06-19T22:15:23.131Z,100993.52
2018-06-19T22:17:51.631Z,100993.00
2018-06-19T22:20:20.136Z,100996.77
2018-06-19T22:22:48.655Z,100996.36
2018-06-19T22:25:17.106Z,100993.55
2018-06-19T22:27:45.776Z,100992.73
2018-06-19T22:30:14.238Z,100995.27
2018-06-19T22:32:42.694Z,100992.80
2018-06-19T22:35:11.220Z,100995.91
2018-06-19T22:37:39.707Z,100993.88
2018-06-19T22:40:08.346Z,100986.43
2018-06-19T22:42:36.762Z,100995.73
2018-06-19T22:45:05.599Z,101003.31
2018-06-19T22:47:34.239Z,100996.13
2018-06-19T22:50:02.608Z,100998.02
2018-06-19T22:52:31.228Z,100997.17
2018-06-19T22:54:59.759Z,100991.96
2018-06-19T22:57:28.150Z,100990.24
2018-06-19T22:59:56.600Z,100991.70
2018-06-19T23:02:25.028Z,100989.14
2018-06-19T23:04:53.999Z,100989.81
2018-06-19T23:07:22.372Z,100991.26
2018-06-19T23:09:50.795Z,100989.42
2018-06-19T23:12:19.210Z,100992.61
2018-06-19T23:14:47.695Z,100992.61
2018-06-19T23:17:16.267Z,100994.08
2018-06-19T23:19:44.679Z,100995.88
2018-06-19T23:22:13.166Z,100987.59
2018-06-19T23:24:41.707Z,100988.74
2018-06-19T23:27:10.156Z,100991.35
2018-06-19T23:29:38.762Z,100992.34
2018-06-19T23:32:07.248Z,100990.78
2018-06-19T23:34:35.715Z,100991.94
2018-06-19T23:37:04.179Z,100994.34
2018-06-19T23:39:32.635Z,100988.52
2018-06-19T23:42:01.345Z,100997.07
2018-06-19T23:44:29.943Z,100998.97
2018-06-19T23:46:58.327Z,100998.69
2018-06-19T23:49:26.855Z,100998.78
2018-06-19T23:51:55.307Z,100995.35
2018-06-19T23:54:24.090Z,100990.64
2018-06-19T23:56:52.514Z,100993.34
2018-06-19T23:59:20.991Z,100993.21
